createdAt,value
2019-02-28T00:00:10.253Z,93.80
2019-02-28T00:01:11.884Z,94.32
2019-02-28T00:02:10.178Z,93.95
2019-02-28T00:03:10.165Z,93.84
2019-02-28T00:04:10.186Z,95.42
2019-02-28T00:05:10.158Z,94.68
2019-02-28T00:06:12.556Z,94.68
2019-02-28T00:07:10.121Z,95.21
2019-02-28T00:08:10.119Z,95.52
2019-02-28T00:09:10.160Z,95.73
2019-02-28T00:10:10.099Z,95.42
2019-02-28T00:11:10.080Z,94.93
2019-02-28T00:12:13.363Z,94.51
2019-02-28T00:13:10.099Z,94.93
2019-02-28T00:14:10.056Z,95.67
2019-02-28T00:15:10.044Z,96.99
2019-02-28T00:16:10.040Z,96.30
2019-02-28T00:17:10.057Z,95.25
2019-02-28T00:18:10.016Z,96.51
2019-02-28T00:19:10.025Z,96.72
2019-02-28T00:20:10.023Z,96.93
2019-02-28T00:21:09.982Z,96.09
2019-02-28T00:22:11.338Z,95.98
2019-02-28T00:23:09.965Z,96.09
2019-02-28T00:24:09.959Z,94.98
2019-02-28T00:25:09.969Z,95.19
2019-02-28T00:26:11.652Z,95.23
2019-02-28T00:27:09.917Z,95.40
2019-02-28T00:28:09.913Z,96.55
2019-02-28T00:29:09.896Z,97.39
2019-02-28T00:30:09.917Z,96.97
2019-02-28T00:31:14.261Z,97.18
2019-02-28T00:32:10.866Z,98.61
2019-02-28T00:33:09.863Z,99.19
2019-02-28T00:34:09.850Z,99.40
2019-02-28T00:35:12.823Z,99.04
2019-02-28T00:36:09.819Z,99.15
2019-02-28T00:37:09.822Z,98.62
2019-02-28T00:38:09.802Z,98.52
2019-02-28T00:39:09.797Z,98.25
2019-02-28T00:40:09.811Z,98.46
2019-02-28T00:41:10.246Z,97.83
2019-02-28T00:42:09.766Z,97.09
2019-02-28T00:43:09.761Z,97.30
2019-02-28T00:44:09.742Z,96.89
2019-02-28T00:45:09.737Z,97.62
2019-02-28T00:46:09.986Z,98.14
2019-02-28T00:47:09.747Z,98.14
2019-02-28T00:48:09.802Z,97.52
2019-02-28T00:49:09.704Z,97.14
2019-02-28T00:50:09.723Z,97.09
2019-02-28T00:51:09.684Z,97.52
2019-02-28T00:52:09.701Z,97.45
2019-02-28T00:53:09.658Z,97.09
2019-02-28T00:54:09.756Z,97.35
2019-02-28T00:55:09.636Z,96.99
2019-02-28T00:56:09.628Z,96.78
2019-02-28T00:57:09.642Z,96.25
2019-02-28T00:58:09.639Z,96.67
2019-02-28T00:59:09.591Z,96.67
2019-02-28T01:00:09.611Z,97.14
2019-02-28T01:01:11.539Z,95.36
2019-02-28T01:02:09.691Z,95.46
2019-02-28T01:03:09.583Z,94.83
2019-02-28T01:04:09.538Z,95.08
2019-02-28T01:05:09.577Z,95.40
2019-02-28T01:06:10.520Z,95.50
2019-02-28T01:07:09.510Z,96.97
2019-02-28T01:08:09.503Z,96.77
2019-02-28T01:09:09.490Z,96.66
2019-02-28T01:10:09.510Z,96.97
2019-02-28T01:11:10.384Z,97.39
2019-02-28T01:12:09.460Z,96.87
2019-02-28T01:13:09.464Z,96.24
2019-02-28T01:14:10.275Z,96.55
2019-02-28T01:15:10.070Z,96.77
2019-02-28T01:16:09.432Z,96.81
2019-02-28T01:17:09.418Z,96.81
2019-02-28T01:18:09.396Z,96.70
2019-02-28T01:19:10.110Z,96.81
2019-02-28T01:20:15.021Z,97.54
2019-02-28T01:21:10.414Z,97.96
2019-02-28T01:22:09.363Z,98.59
2019-02-28T01:23:09.347Z,97.92
2019-02-28T01:24:09.334Z,97.50
2019-02-28T01:25:09.326Z,97.29
2019-02-28T01:26:11.803Z,97.50
2019-02-28T01:27:09.344Z,98.55
2019-02-28T01:28:09.297Z,98.39
2019-02-28T01:29:09.298Z,98.46
2019-02-28T01:30:09.303Z,98.35
2019-02-28T01:31:11.606Z,98.14
2019-02-28T01:32:09.263Z,98.25
2019-02-28T01:33:09.245Z,98.35
2019-02-28T01:34:09.239Z,98.35
2019-02-28T01:35:09.253Z,98.35
2019-02-28T01:36:09.212Z,96.99
2019-02-28T01:37:09.224Z,97.30
2019-02-28T01:38:09.197Z,97.20
2019-02-28T01:39:09.185Z,97.14
2019-02-28T01:40:09.209Z,96.61
2019-02-28T01:41:11.246Z,96.93
2019-02-28T01:42:09.829Z,96.93
2019-02-28T01:43:09.178Z,96.87
2019-02-28T01:44:09.141Z,96.87
2019-02-28T01:45:09.780Z,96.97
2019-02-28T01:46:09.115Z,96.87
2019-02-28T01:47:09.102Z,96.39
2019-02-28T01:48:09.174Z,96.97
2019-02-28T01:49:09.828Z,96.81
2019-02-28T01:50:09.774Z,96.39
2019-02-28T01:51:09.061Z,95.06
2019-02-28T01:52:10.075Z,95.80
2019-02-28T01:53:09.043Z,96.43
2019-02-28T01:54:09.064Z,96.53
2019-02-28T01:55:09.024Z,98.64
2019-02-28T01:56:09.045Z,98.59
2019-02-28T01:57:10.007Z,98.49
2019-02-28T01:58:08.999Z,98.07
2019-02-28T01:59:08.977Z,98.38
2019-02-28T02:00:08.991Z,99.01
2019-02-28T02:01:08.982Z,98.64
2019-02-28T02:02:08.956Z,98.53
2019-02-28T02:03:09.498Z,97.80
2019-02-28T02:04:08.932Z,97.53
2019-02-28T02:05:08.920Z,97.63
2019-02-28T02:06:09.066Z,97.42
2019-02-28T02:07:08.895Z,98.26
2019-02-28T02:08:08.897Z,98.74
2019-02-28T02:09:11.187Z,99.05
2019-02-28T02:10:08.867Z,98.43
2019-02-28T02:11:08.893Z,98.95
2019-02-28T02:12:08.851Z,99.37
2019-02-28T02:13:08.841Z,99.33
2019-02-28T02:14:11.083Z,99.22
2019-02-28T02:15:08.819Z,98.91
2019-02-28T02:16:08.843Z,98.49
2019-02-28T02:17:08.803Z,98.17
2019-02-28T02:18:09.312Z,98.59
2019-02-28T02:19:08.778Z,97.96
2019-02-28T02:20:08.770Z,97.64
2019-02-28T02:21:08.791Z,97.96
2019-02-28T02:22:09.462Z,97.54
2019-02-28T02:23:08.744Z,97.54
2019-02-28T02:24:08.731Z,97.06
2019-02-28T02:25:08.725Z,96.75
2019-02-28T02:26:11.225Z,96.89
2019-02-28T02:27:08.702Z,96.89
2019-02-28T02:28:08.689Z,96.89
2019-02-28T02:29:08.691Z,96.79
2019-02-28T02:30:13.349Z,97.11
2019-02-28T02:31:09.693Z,97.53
2019-02-28T02:32:08.655Z,97.25
2019-02-28T02:33:13.626Z,97.05
2019-02-28T02:34:09.626Z,96.62
2019-02-28T02:35:08.648Z,97.19
2019-02-28T02:36:08.646Z,97.72
2019-02-28T02:37:08.602Z,98.72
2019-02-28T02:38:08.587Z,99.15
2019-02-28T02:39:08.608Z,99.73
2019-02-28T02:40:08.569Z,99.21
2019-02-28T02:41:08.589Z,99.95
2019-02-28T02:42:11.384Z,99.79
2019-02-28T02:43:08.536Z,99.99
2019-02-28T02:44:08.529Z,99.99
2019-02-28T02:45:08.534Z,99.99
2019-02-28T02:46:08.542Z,99.99
2019-02-28T02:47:08.497Z,99.99
2019-02-28T02:48:08.492Z,99.99
2019-02-28T02:49:08.486Z,99.99
2019-02-28T02:50:08.465Z,99.99
2019-02-28T02:51:11.345Z,99.99
2019-02-28T02:52:08.465Z,99.99
2019-02-28T02:53:08.437Z,99.87
2019-02-28T02:54:08.429Z,99.60
2019-02-28T02:55:08.433Z,99.80
2019-02-28T02:56:08.431Z,99.80
2019-02-28T02:57:08.410Z,99.91
2019-02-28T02:58:08.383Z,99.66
2019-02-28T02:59:08.376Z,99.44
2019-02-28T03:00:13.423Z,99.55
2019-02-28T03:01:09.400Z,99.08
2019-02-28T03:02:08.360Z,99.19
2019-02-28T03:03:08.334Z,99.24
2019-02-28T03:04:08.332Z,98.98
2019-02-28T03:05:08.337Z,99.19
2019-02-28T03:06:12.233Z,99.40
2019-02-28T03:07:09.296Z,99.30
2019-02-28T03:08:08.288Z,99.51
2019-02-28T03:09:10.031Z,99.61
2019-02-28T03:10:08.268Z,99.13
2019-02-28T03:11:08.646Z,99.51
2019-02-28T03:12:08.296Z,99.99
2019-02-28T03:13:08.300Z,99.99
2019-02-28T03:14:08.283Z,99.99
2019-02-28T03:15:08.260Z,99.99
2019-02-28T03:16:08.330Z,99.99
2019-02-28T03:17:11.801Z,99.99
2019-02-28T03:18:08.240Z,99.99
2019-02-28T03:19:08.228Z,99.99
2019-02-28T03:20:08.866Z,99.99
2019-02-28T03:21:08.286Z,99.99
2019-02-28T03:22:08.290Z,99.99
2019-02-28T03:23:08.188Z,99.99
2019-02-28T03:24:14.849Z,99.49
2019-02-28T03:25:09.157Z,98.91
2019-02-28T03:26:08.156Z,98.49
2019-02-28T03:27:08.137Z,98.18
2019-02-28T03:28:08.269Z,97.96
2019-02-28T03:29:09.027Z,98.28
2019-02-28T03:30:08.120Z,97.96
2019-02-28T03:31:14.267Z,96.75
2019-02-28T03:32:09.081Z,96.23
2019-02-28T03:33:08.099Z,97.17
2019-02-28T03:34:12.841Z,96.96
2019-02-28T03:35:09.053Z,96.75
2019-02-28T03:36:08.044Z,96.59
2019-02-28T03:37:08.022Z,97.22
2019-02-28T03:38:11.444Z,96.65
2019-02-28T03:39:08.088Z,96.55
2019-02-28T03:40:08.022Z,96.48
2019-02-28T03:41:07.999Z,95.68
2019-02-28T03:42:08.012Z,95.48
2019-02-28T03:43:07.985Z,96.63
2019-02-28T03:44:08.052Z,96.31
2019-02-28T03:45:07.966Z,96.53
2019-02-28T03:46:10.187Z,96.53
2019-02-28T03:47:07.937Z,96.63
2019-02-28T03:48:07.926Z,96.94
2019-02-28T03:49:11.721Z,98.26
2019-02-28T03:50:07.938Z,97.95
2019-02-28T03:51:07.891Z,98.31
2019-02-28T03:52:08.872Z,98.26
2019-02-28T03:53:07.871Z,98.37
2019-02-28T03:54:08.013Z,98.37
2019-02-28T03:55:07.854Z,98.95
2019-02-28T03:56:07.825Z,99.64
2019-02-28T03:57:07.831Z,99.80
2019-02-28T03:58:07.819Z,99.07
2019-02-28T03:59:07.895Z,98.19
2019-02-28T04:00:08.804Z,97.94
2019-02-28T04:01:09.451Z,96.70
2019-02-28T04:02:07.886Z,95.34
2019-02-28T04:03:07.773Z,94.88
2019-02-28T04:04:12.192Z,94.88
2019-02-28T04:05:07.796Z,93.69
2019-02-28T04:06:07.745Z,93.48
2019-02-28T04:07:07.736Z,93.02
2019-02-28T04:08:07.724Z,91.93
2019-02-28T04:09:09.033Z,91.58
2019-02-28T04:10:07.794Z,90.50
2019-02-28T04:11:07.690Z,89.70
2019-02-28T04:12:09.040Z,89.60
2019-02-28T04:13:07.753Z,90.50
2019-02-28T04:14:07.666Z,90.50
2019-02-28T04:15:10.198Z,90.25
2019-02-28T04:16:09.473Z,89.73
2019-02-28T04:17:07.627Z,90.04
2019-02-28T04:18:08.592Z,89.94
2019-02-28T04:19:07.613Z,89.98
2019-02-28T04:20:08.302Z,88.93
2019-02-28T04:21:10.154Z,89.70
2019-02-28T04:22:07.598Z,90.33
2019-02-28T04:23:07.594Z,90.70
2019-02-28T04:24:12.694Z,90.77
2019-02-28T04:25:08.633Z,89.83
2019-02-28T04:26:07.541Z,88.68
2019-02-28T04:27:07.912Z,88.79
2019-02-28T04:28:07.524Z,89.58
2019-02-28T04:29:07.500Z,88.75
2019-02-28T04:30:08.429Z,87.96
2019-02-28T04:31:07.502Z,88.27
2019-02-28T04:32:07.432Z,88.52
2019-02-28T04:33:07.431Z,89.98
2019-02-28T04:34:13.030Z,90.04
2019-02-28T04:35:08.412Z,89.00
2019-02-28T04:36:07.397Z,87.48
2019-02-28T04:37:08.546Z,88.31
2019-02-28T04:38:07.384Z,90.01
2019-02-28T04:39:07.382Z,89.70
2019-02-28T04:40:07.361Z,90.44
2019-02-28T04:41:07.394Z,90.47
2019-02-28T04:42:07.344Z,90.37
2019-02-28T04:43:10.034Z,90.10
2019-02-28T04:44:07.320Z,90.52
2019-02-28T04:45:07.332Z,91.60
2019-02-28T04:46:07.352Z,91.50
2019-02-28T04:47:07.647Z,93.06
2019-02-28T04:48:07.276Z,93.48
2019-02-28T04:49:07.273Z,94.52
2019-02-28T04:50:07.264Z,92.75
2019-02-28T04:51:07.243Z,92.33
2019-02-28T04:52:07.285Z,92.47
2019-02-28T04:53:07.228Z,93.10
2019-02-28T04:54:07.214Z,93.57
2019-02-28T04:55:07.243Z,93.04
2019-02-28T04:56:11.064Z,92.77
2019-02-28T04:57:07.181Z,93.71
2019-02-28T04:58:07.175Z,95.59
2019-02-28T04:59:07.154Z,96.43
2019-02-28T05:00:07.189Z,94.96
2019-02-28T05:01:09.144Z,93.92
2019-02-28T05:02:08.126Z,94.86
2019-02-28T05:03:07.109Z,94.38
2019-02-28T05:04:07.106Z,93.86
2019-02-28T05:05:12.099Z,94.11
2019-02-28T05:06:08.115Z,94.84
2019-02-28T05:07:07.081Z,96.56
2019-02-28T05:08:07.064Z,95.31
2019-02-28T05:09:07.048Z,95.09
2019-02-28T05:10:07.078Z,95.09
2019-02-28T05:11:07.775Z,95.25
2019-02-28T05:12:07.031Z,95.25
2019-02-28T05:13:07.015Z,96.71
2019-02-28T05:14:07.000Z,96.08
2019-02-28T05:15:07.020Z,97.29
2019-02-28T05:16:09.388Z,96.92
2019-02-28T05:17:07.966Z,96.08
2019-02-28T05:18:07.017Z,97.13
2019-02-28T05:19:06.952Z,98.13
2019-02-28T05:20:07.275Z,96.61
2019-02-28T05:21:06.955Z,95.03
2019-02-28T05:22:06.930Z,96.39
2019-02-28T05:23:06.903Z,98.24
2019-02-28T05:24:07.751Z,97.98
2019-02-28T05:25:06.888Z,98.19
2019-02-28T05:26:06.934Z,97.04
2019-02-28T05:27:06.865Z,97.20
2019-02-28T05:28:07.555Z,98.10
2019-02-28T05:29:06.849Z,97.32
2019-02-28T05:30:06.833Z,96.07
2019-02-28T05:31:06.870Z,94.92
2019-02-28T05:32:06.816Z,94.09
2019-02-28T05:33:07.460Z,94.09
2019-02-28T05:34:06.798Z,94.67
2019-02-28T05:35:06.787Z,93.73
2019-02-28T05:36:06.834Z,94.42
2019-02-28T05:37:12.280Z,94.10
2019-02-28T05:38:07.747Z,93.31
2019-02-28T05:39:06.742Z,93.10
2019-02-28T05:40:06.932Z,92.27
2019-02-28T05:41:06.746Z,92.41
2019-02-28T05:42:06.705Z,92.10
2019-02-28T05:43:06.711Z,92.00
2019-02-28T05:44:07.323Z,92.52
2019-02-28T05:45:06.679Z,92.46
2019-02-28T05:46:06.699Z,92.50
2019-02-28T05:47:06.663Z,93.02
2019-02-28T05:48:06.649Z,92.92
2019-02-28T05:49:08.692Z,92.96
2019-02-28T05:50:06.642Z,93.70
2019-02-28T05:51:06.654Z,94.36
2019-02-28T05:52:06.611Z,95.05
2019-02-28T05:53:09.321Z,96.31
2019-02-28T05:54:06.593Z,96.20
2019-02-28T05:55:06.578Z,97.83
2019-02-28T05:56:06.609Z,97.83
2019-02-28T05:57:08.178Z,97.10
2019-02-28T05:58:06.549Z,95.84
2019-02-28T05:59:06.544Z,96.51
2019-02-28T06:00:06.564Z,95.41
2019-02-28T06:01:08.794Z,95.09
2019-02-28T06:02:07.506Z,96.35
2019-02-28T06:03:06.495Z,96.35
2019-02-28T06:04:06.484Z,96.20
2019-02-28T06:05:08.462Z,95.99
2019-02-28T06:06:08.112Z,98.19
2019-02-28T06:07:06.480Z,97.56
2019-02-28T06:08:06.446Z,98.19
2019-02-28T06:09:06.433Z,97.04
2019-02-28T06:10:06.480Z,97.10
2019-02-28T06:11:06.413Z,97.00
2019-02-28T06:12:06.577Z,97.94
2019-02-28T06:13:06.392Z,98.25
2019-02-28T06:14:06.379Z,96.22
2019-02-28T06:15:06.454Z,96.26
2019-02-28T06:16:11.048Z,96.16
2019-02-28T06:17:07.355Z,96.43
2019-02-28T06:18:06.341Z,97.37
2019-02-28T06:19:08.307Z,97.74
2019-02-28T06:20:06.325Z,96.66
2019-02-28T06:21:06.339Z,94.61
2019-02-28T06:22:06.309Z,93.77
2019-02-28T06:23:09.213Z,94.57
2019-02-28T06:24:06.280Z,93.79
2019-02-28T06:25:06.583Z,92.33
2019-02-28T06:26:06.263Z,92.85
2019-02-28T06:27:07.427Z,93.27
2019-02-28T06:28:06.238Z,94.58
2019-02-28T06:29:06.235Z,92.46
2019-02-28T06:30:08.715Z,91.83
2019-02-28T06:31:06.208Z,90.26
2019-02-28T06:32:06.211Z,89.12
2019-02-28T06:33:06.233Z,89.58
2019-02-28T06:34:08.566Z,91.35
2019-02-28T06:35:06.167Z,91.56
2019-02-28T06:36:06.189Z,92.35
2019-02-28T06:37:06.142Z,91.41
2019-02-28T06:38:06.826Z,90.68
2019-02-28T06:39:06.129Z,89.89
2019-02-28T06:40:06.154Z,89.68
2019-02-28T06:41:07.666Z,92.29
2019-02-28T06:42:06.095Z,91.97
2019-02-28T06:43:06.803Z,91.97
2019-02-28T06:44:06.078Z,91.56
2019-02-28T06:45:06.067Z,92.25
2019-02-28T06:46:08.493Z,91.53
2019-02-28T06:47:06.051Z,89.73
2019-02-28T06:48:06.033Z,88.81
2019-02-28T06:49:07.194Z,87.38
2019-02-28T06:50:06.016Z,86.44
2019-02-28T06:51:06.000Z,84.74
2019-02-28T06:52:06.051Z,84.39
2019-02-28T06:53:05.981Z,83.22
2019-02-28T06:54:07.790Z,82.28
2019-02-28T06:55:05.963Z,82.03
2019-02-28T06:56:05.958Z,81.16
2019-02-28T06:57:05.948Z,80.75
2019-02-28T06:58:05.950Z,79.82
2019-02-28T06:59:05.924Z,79.27
2019-02-28T07:00:05.910Z,79.54
2019-02-28T07:01:05.900Z,79.02
2019-02-28T07:02:05.887Z,78.67
2019-02-28T07:03:05.926Z,77.39
2019-02-28T07:04:05.870Z,77.09
2019-02-28T07:05:05.857Z,77.05
2019-02-28T07:06:05.846Z,75.78
2019-02-28T07:07:07.406Z,75.15
2019-02-28T07:08:05.823Z,74.74
2019-02-28T07:09:05.817Z,74.74
2019-02-28T07:10:06.269Z,75.78
2019-02-28T07:11:05.801Z,75.63
2019-02-28T07:12:05.830Z,74.46
2019-02-28T07:13:05.774Z,74.22
2019-02-28T07:14:05.765Z,74.22
2019-02-28T07:15:05.761Z,73.39
2019-02-28T07:16:05.742Z,73.50
2019-02-28T07:17:07.791Z,74.43
2019-02-28T07:18:05.730Z,73.88
2019-02-28T07:19:05.715Z,73.33
2019-02-28T07:20:05.711Z,72.09
2019-02-28T07:21:07.889Z,72.06
2019-02-28T07:22:05.705Z,71.44
2019-02-28T07:23:05.670Z,71.10
2019-02-28T07:24:05.660Z,68.80
2019-02-28T07:25:05.660Z,68.39
2019-02-28T07:26:05.634Z,68.66
2019-02-28T07:27:05.656Z,66.27
2019-02-28T07:28:05.627Z,66.44
2019-02-28T07:29:11.147Z,66.03
2019-02-28T07:30:06.605Z,66.78
2019-02-28T07:31:05.590Z,66.16
2019-02-28T07:32:05.593Z,66.78
2019-02-28T07:33:09.378Z,67.06
2019-02-28T07:34:05.554Z,66.07
2019-02-28T07:35:05.577Z,64.22
2019-02-28T07:36:09.051Z,63.06
2019-02-28T07:37:05.538Z,63.37
2019-02-28T07:38:05.510Z,63.62
2019-02-28T07:39:05.541Z,63.18
2019-02-28T07:40:05.488Z,62.05
2019-02-28T07:41:05.514Z,63.43
2019-02-28T07:42:05.475Z,61.55
2019-02-28T07:43:05.460Z,60.56
2019-02-28T07:44:05.453Z,59.61
2019-02-28T07:45:05.444Z,58.92
2019-02-28T07:46:07.687Z,59.25
2019-02-28T07:47:05.426Z,62.19
2019-02-28T07:48:05.416Z,62.30
2019-02-28T07:49:05.399Z,60.12
2019-02-28T07:50:07.679Z,59.17
2019-02-28T07:51:06.410Z,58.73
2019-02-28T07:52:05.366Z,58.09
2019-02-28T07:53:05.502Z,57.86
2019-02-28T07:54:05.352Z,56.66
2019-02-28T07:55:05.332Z,56.76
2019-02-28T07:56:07.178Z,56.05
2019-02-28T07:57:05.318Z,57.07
2019-02-28T07:58:05.300Z,55.74
2019-02-28T07:59:06.262Z,56.66
2019-02-28T08:00:05.284Z,56.46
2019-02-28T08:01:05.301Z,55.84
2019-02-28T08:02:05.259Z,55.30
2019-02-28T08:03:05.248Z,55.58
2019-02-28T08:04:05.238Z,55.82
2019-02-28T08:05:05.227Z,55.38
2019-02-28T08:06:05.777Z,55.26
2019-02-28T08:07:05.214Z,55.56
2019-02-28T08:08:05.195Z,54.97
2019-02-28T08:09:05.547Z,55.26
2019-02-28T08:10:05.176Z,55.63
2019-02-28T08:11:05.187Z,54.49
2019-02-28T08:12:05.150Z,55.05
2019-02-28T08:13:05.143Z,57.43
2019-02-28T08:14:05.132Z,55.38
2019-02-28T08:15:05.116Z,55.28
2019-02-28T08:16:05.158Z,55.28
2019-02-28T08:17:05.487Z,54.97
2019-02-28T08:18:05.878Z,55.87
2019-02-28T08:19:05.079Z,54.33
2019-02-28T08:20:05.073Z,53.39
2019-02-28T08:21:05.351Z,53.92
2019-02-28T08:22:05.076Z,53.72
2019-02-28T08:23:05.054Z,54.95
2019-02-28T08:24:05.481Z,55.00
2019-02-28T08:25:07.768Z,51.93
2019-02-28T08:26:05.005Z,52.42
2019-02-28T08:27:05.016Z,51.66
2019-02-28T08:28:05.014Z,50.92
2019-02-28T08:29:07.975Z,50.90
2019-02-28T08:30:05.961Z,49.96
2019-02-28T08:31:04.956Z,49.02
2019-02-28T08:32:08.022Z,48.35
2019-02-28T08:33:04.929Z,48.79
2019-02-28T08:34:04.934Z,49.80
2019-02-28T08:35:04.901Z,49.15
2019-02-28T08:36:08.496Z,49.58
2019-02-28T08:37:05.909Z,50.39
2019-02-28T08:38:06.688Z,49.70
2019-02-28T08:39:06.077Z,50.03
2019-02-28T08:40:04.859Z,50.31
2019-02-28T08:41:06.483Z,49.15
2019-02-28T08:42:05.025Z,48.21
2019-02-28T08:43:04.825Z,48.72
2019-02-28T08:44:04.814Z,48.90
2019-02-28T08:45:04.796Z,47.94
2019-02-28T08:46:09.557Z,46.82
2019-02-28T08:47:05.797Z,46.84
2019-02-28T08:48:04.807Z,46.82
2019-02-28T08:49:07.236Z,45.80
2019-02-28T08:50:04.756Z,44.24
2019-02-28T08:51:04.753Z,45.76
2019-02-28T08:52:05.614Z,44.60
2019-02-28T08:53:04.751Z,43.87
2019-02-28T08:54:06.131Z,42.80
2019-02-28T08:55:07.092Z,44.22
2019-02-28T08:56:04.681Z,44.50
2019-02-28T08:57:04.688Z,44.73
2019-02-28T08:58:06.616Z,43.20
2019-02-28T08:59:11.590Z,44.01
2019-02-28T09:00:05.660Z,44.89
2019-02-28T09:01:05.607Z,43.55
2019-02-28T09:02:04.656Z,43.65
2019-02-28T09:03:04.615Z,43.04
2019-02-28T09:04:05.702Z,42.90
2019-02-28T09:05:06.614Z,42.07
2019-02-28T09:06:07.139Z,41.99
2019-02-28T09:07:04.594Z,41.26
2019-02-28T09:08:04.549Z,41.85
2019-02-28T09:09:04.551Z,40.31
2019-02-28T09:10:06.378Z,40.15
2019-02-28T09:11:05.526Z,41.87
2019-02-28T09:12:04.538Z,41.91
2019-02-28T09:13:07.590Z,42.52
2019-02-28T09:14:04.491Z,41.16
2019-02-28T09:15:04.492Z,41.38
2019-02-28T09:16:04.942Z,40.67
2019-02-28T09:17:04.486Z,41.58
2019-02-28T09:18:04.470Z,42.47
2019-02-28T09:19:04.431Z,41.56
2019-02-28T09:20:07.542Z,41.24
2019-02-28T09:21:05.410Z,38.56
2019-02-28T09:22:04.854Z,37.62
2019-02-28T09:23:06.298Z,36.69
2019-02-28T09:24:04.386Z,38.52
2019-02-28T09:25:04.379Z,37.58
2019-02-28T09:26:04.373Z,37.31
2019-02-28T09:27:04.974Z,39.03
2019-02-28T09:28:04.355Z,38.15
2019-02-28T09:29:04.343Z,38.54
2019-02-28T09:30:04.315Z,37.62
2019-02-28T09:31:05.140Z,38.10
2019-02-28T09:32:04.313Z,36.87
2019-02-28T09:33:04.290Z,37.06
2019-02-28T09:34:04.291Z,36.46
2019-02-28T09:35:06.379Z,36.32
2019-02-28T09:36:05.292Z,36.82
2019-02-28T09:37:04.244Z,36.64
2019-02-28T09:38:08.042Z,36.82
2019-02-28T09:39:05.226Z,34.74
2019-02-28T09:40:04.218Z,33.62
2019-02-28T09:41:04.770Z,34.02
2019-02-28T09:42:04.227Z,35.48
2019-02-28T09:43:04.178Z,35.19
2019-02-28T09:44:04.169Z,35.11
2019-02-28T09:45:07.655Z,35.33
2019-02-28T09:46:04.159Z,35.38
2019-02-28T09:47:04.144Z,35.46
2019-02-28T09:48:04.180Z,35.68
2019-02-28T09:49:05.606Z,35.55
2019-02-28T09:50:04.130Z,34.33
2019-02-28T09:51:04.104Z,33.59
2019-02-28T09:52:06.434Z,32.90
2019-02-28T09:53:04.080Z,32.72
2019-02-28T09:54:04.096Z,33.81
2019-02-28T09:55:04.065Z,33.75
2019-02-28T09:56:08.901Z,34.67
2019-02-28T09:57:05.046Z,34.46
2019-02-28T09:58:04.329Z,34.78
2019-02-28T09:59:04.013Z,35.18
2019-02-28T10:00:03.997Z,35.18
2019-02-28T10:01:04.007Z,35.26
2019-02-28T10:02:08.189Z,34.38
2019-02-28T10:03:03.968Z,33.72
2019-02-28T10:04:03.985Z,33.49
2019-02-28T10:05:06.565Z,34.69
2019-02-28T10:06:03.977Z,33.52
2019-02-28T10:07:03.931Z,33.65
2019-02-28T10:08:03.947Z,34.34
2019-02-28T10:09:03.900Z,32.60
2019-02-28T10:10:03.891Z,34.34
2019-02-28T10:11:03.890Z,35.26
2019-02-28T10:12:04.696Z,35.55
2019-02-28T10:13:03.891Z,33.25
2019-02-28T10:14:03.851Z,34.38
2019-02-28T10:15:07.133Z,34.86
2019-02-28T10:16:03.835Z,33.64
2019-02-28T10:17:03.815Z,33.02
2019-02-28T10:18:04.446Z,33.05
2019-02-28T10:19:05.243Z,32.93
2019-02-28T10:20:03.783Z,32.64
2019-02-28T10:21:03.808Z,32.81
2019-02-28T10:22:03.769Z,33.42
2019-02-28T10:23:03.748Z,32.89
2019-02-28T10:24:03.787Z,31.77
2019-02-28T10:25:06.487Z,30.57
2019-02-28T10:26:03.728Z,30.94
2019-02-28T10:27:03.714Z,30.79
2019-02-28T10:28:03.731Z,31.40
2019-02-28T10:29:04.491Z,30.58
2019-02-28T10:30:03.692Z,29.58
2019-02-28T10:31:03.678Z,30.79
2019-02-28T10:32:06.179Z,30.41
2019-02-28T10:33:04.689Z,30.41
2019-02-28T10:34:03.640Z,29.39
2019-02-28T10:35:03.630Z,29.58
2019-02-28T10:36:03.615Z,30.88
2019-02-28T10:37:04.348Z,30.82
2019-02-28T10:38:03.626Z,31.46
2019-02-28T10:39:05.935Z,31.23
2019-02-28T10:40:05.104Z,29.39
2019-02-28T10:41:03.567Z,29.47
2019-02-28T10:42:05.043Z,28.19
2019-02-28T10:43:03.580Z,29.99
2019-02-28T10:44:03.537Z,30.38
2019-02-28T10:45:06.367Z,31.12
2019-02-28T10:46:03.513Z,30.34
2019-02-28T10:47:03.515Z,30.84
2019-02-28T10:48:04.102Z,31.24
2019-02-28T10:49:03.507Z,29.93
2019-02-28T10:50:03.463Z,31.12
2019-02-28T10:51:12.779Z,30.52
2019-02-28T10:52:04.449Z,29.90
2019-02-28T10:53:05.450Z,30.51
2019-02-28T10:54:03.470Z,29.98
2019-02-28T10:55:03.421Z,28.78
2019-02-28T10:56:03.405Z,29.05
2019-02-28T10:57:05.939Z,27.94
2019-02-28T10:58:03.444Z,28.07
2019-02-28T10:59:03.377Z,29.71
2019-02-28T11:00:03.384Z,29.67
2019-02-28T11:01:07.527Z,28.96
2019-02-28T11:02:04.337Z,28.44
2019-02-28T11:03:03.336Z,26.70
2019-02-28T11:04:04.463Z,27.62
2019-02-28T11:05:03.315Z,27.80
2019-02-28T11:06:03.298Z,27.39
2019-02-28T11:07:03.289Z,27.99
2019-02-28T11:08:03.282Z,28.22
2019-02-28T11:09:03.292Z,27.93
2019-02-28T11:10:03.257Z,28.81
2019-02-28T11:11:03.239Z,27.40
2019-02-28T11:12:03.235Z,26.98
2019-02-28T11:13:03.553Z,26.68
2019-02-28T11:14:04.140Z,27.49
2019-02-28T11:15:03.194Z,27.15
2019-02-28T11:16:03.193Z,27.05
2019-02-28T11:17:03.179Z,28.10
2019-02-28T11:18:08.525Z,28.42
2019-02-28T11:19:04.178Z,28.42
2019-02-28T11:20:03.144Z,28.44
2019-02-28T11:21:03.307Z,29.77
2019-02-28T11:22:04.912Z,30.90
2019-02-28T11:23:03.114Z,30.38
2019-02-28T11:24:03.135Z,28.54
2019-02-28T11:25:03.841Z,29.11
2019-02-28T11:26:03.087Z,27.89
2019-02-28T11:27:03.082Z,27.08
2019-02-28T11:28:03.081Z,27.37
2019-02-28T11:29:03.857Z,27.00
2019-02-28T11:30:03.045Z,27.67
2019-02-28T11:31:03.120Z,25.04
2019-02-28T11:32:03.032Z,25.50
2019-02-28T11:33:04.544Z,25.49
2019-02-28T11:34:02.997Z,26.86
2019-02-28T11:35:02.998Z,27.94
2019-02-28T11:36:02.972Z,29.68
2019-02-28T11:37:08.580Z,29.03
2019-02-28T11:38:05.029Z,27.76
2019-02-28T11:39:02.956Z,26.75
2019-02-28T11:40:05.452Z,25.92
2019-02-28T11:41:03.929Z,25.70
2019-02-28T11:42:02.913Z,23.90
2019-02-28T11:43:03.861Z,25.13
2019-02-28T11:44:02.921Z,26.04
2019-02-28T11:45:02.903Z,25.15
2019-02-28T11:46:03.101Z,25.74
2019-02-28T11:47:02.863Z,25.63
2019-02-28T11:48:02.857Z,25.51
2019-02-28T11:49:02.877Z,26.02
2019-02-28T11:50:04.549Z,25.13
2019-02-28T11:51:02.822Z,24.52
2019-02-28T11:52:02.805Z,25.54
2019-02-28T11:53:05.684Z,24.63
2019-02-28T11:54:02.811Z,26.02
2019-02-28T11:55:02.778Z,26.80
2019-02-28T11:56:02.764Z,25.70
2019-02-28T11:57:04.431Z,24.89
2019-02-28T11:58:02.762Z,25.70
2019-02-28T11:59:03.257Z,25.72
2019-02-28T12:00:02.751Z,26.99
2019-02-28T12:01:02.709Z,27.22
2019-02-28T12:02:02.704Z,28.55
2019-02-28T12:03:02.697Z,29.69
2019-02-28T12:04:02.719Z,30.66
2019-02-28T12:05:02.672Z,30.45
2019-02-28T12:06:02.674Z,29.57
2019-02-28T12:07:02.653Z,29.62
2019-02-28T12:08:02.653Z,31.62
2019-02-28T12:09:02.654Z,30.81
2019-02-28T12:10:02.624Z,30.93
2019-02-28T12:11:02.905Z,31.01
2019-02-28T12:12:02.598Z,29.72
2019-02-28T12:13:02.581Z,28.74
2019-02-28T12:14:03.305Z,30.46
2019-02-28T12:15:05.697Z,29.81
2019-02-28T12:16:02.555Z,32.56
2019-02-28T12:17:02.542Z,31.27
2019-02-28T12:18:04.694Z,32.97
2019-02-28T12:19:02.551Z,32.24
2019-02-28T12:20:03.862Z,32.44
2019-02-28T12:21:04.872Z,30.93
2019-02-28T12:22:02.489Z,31.10
2019-02-28T12:23:02.483Z,29.57
2019-02-28T12:24:02.500Z,30.58
2019-02-28T12:25:04.552Z,30.69
2019-02-28T12:26:02.453Z,32.53
2019-02-28T12:27:04.106Z,32.27
2019-02-28T12:28:04.716Z,32.24
2019-02-28T12:29:02.453Z,31.05
2019-02-28T12:30:02.416Z,29.21
2019-02-28T12:31:02.404Z,27.08
2019-02-28T12:32:02.386Z,26.37
2019-02-28T12:33:02.401Z,27.05
2019-02-28T12:34:02.395Z,27.04
2019-02-28T12:35:02.540Z,27.75
2019-02-28T12:36:02.352Z,27.04
2019-02-28T12:37:02.335Z,25.42
2019-02-28T12:38:02.328Z,24.35
2019-02-28T12:39:03.032Z,24.94
2019-02-28T12:40:02.304Z,24.77
2019-02-28T12:41:02.295Z,25.98
2019-02-28T12:42:02.293Z,26.45
2019-02-28T12:43:02.268Z,25.54
2019-02-28T12:44:02.298Z,26.84
2019-02-28T12:45:02.255Z,25.56
2019-02-28T12:46:02.250Z,25.87
2019-02-28T12:47:03.283Z,27.19
2019-02-28T12:48:02.212Z,27.37
2019-02-28T12:49:02.201Z,26.95
2019-02-28T12:50:02.217Z,25.84
2019-02-28T12:51:05.096Z,24.73
2019-02-28T12:52:02.175Z,24.74